KRDR/RDR METAR and TAF weather

Enter ICAO airport designator
Station Type Date Time Source
KRDR METAR 2019/05/23 18:56 UTC NOAA

KRDR 231856Z AUTO 03013G22KT 10SM SCT042 SCT050 SCT200 18/07 A3007 RMK AO2 SLP190 T01780069 $


Station Type Date Time Source
KRDR Decoded METAR 2019/05/23 18:56 UTC NOAA

Grand Forks Air Force Base, ND, United States (KRDR) 47-58N 097-24W 278M
May 23, 2019 - 02:56 PM EDT / 2019.05.23 1856 UTC
Wind: from the NNE (030 degrees) at 15 MPH (13 KT) gusting to 25 MPH (22 KT):0
Visibility: 10 mile(s):0
Sky conditions: partly cloudy
Temperature: 64.0 F (17.8 C)
Dew Point: 44.4 F (6.9 C)
Relative Humidity: 48%
Pressure (altimeter): 30.07 in. Hg (1018 hPa)
ob: KRDR 231856Z AUTO 03013G22KT 10SM SCT042 SCT050 SCT200 18/07 A3007 RMK AO2 SLP190 T01780069
cycle: 19

Station Type Date Time Source
KRDR TAF 2019/05/19 03:35 UTC NOAA

TAF
AMD KRDR 190320Z 1903/2008 04012KT 9000 -SHRA BKN040 610409 510004 QNH2995INS
BECMG 1903/1904 03012KT 9999 NSW BKN025 620404 510004 QNH3000INS
BECMG 1914/1915 04012G20KT 9999 SCT035 510004 QNH3002INS
BECMG 1919/1920 03015KT 9999 SCT030 QNH3003INS
BECMG 2002/2003 04009KT 9999 BKN030 QNH3007INS
BECMG 2004/2005 VRB06KT 9999 BKN030 QNH3011INS TX13/1922Z TN04/1911Z LAST NO
AMDS AFT 1903 NEXT 2811

Example: see airport list